createdAt,value
2019-03-16T00:04:01.396Z,2.47
2019-03-16T00:14:06.896Z,1.60
2019-03-16T00:24:12.375Z,1.60
2019-03-16T00:34:17.866Z,1.33
2019-03-16T00:44:23.307Z,1.30
2019-03-16T00:54:28.799Z,1.47
2019-03-16T01:04:34.369Z,2.27
2019-03-16T01:14:39.871Z,1.50
2019-03-16T01:24:45.567Z,1.60
2019-03-16T01:34:51.120Z,1.90
2019-03-16T01:44:56.598Z,1.43
2019-03-16T01:55:02.103Z,1.80
2019-03-16T02:05:08.366Z,1.33
2019-03-16T02:15:14.065Z,2.00
2019-03-16T02:25:19.674Z,2.17
2019-03-16T02:35:25.305Z,2.10
2019-03-16T02:45:32.151Z,2.43
2019-03-16T02:55:37.743Z,2.50
2019-03-16T03:05:43.280Z,2.70
2019-03-16T03:15:48.892Z,3.37
2019-03-16T03:25:54.442Z,2.23
2019-03-16T03:36:00.076Z,1.10
2019-03-16T03:46:05.671Z,1.10
2019-03-16T03:56:11.203Z,1.60
2019-03-16T04:06:16.713Z,1.50
2019-03-16T04:16:22.275Z,1.50
2019-03-16T04:26:27.953Z,1.80
2019-03-16T04:36:33.744Z,2.80
2019-03-16T04:46:39.375Z,1.97
2019-03-16T04:56:44.956Z,2.50
2019-03-16T05:06:50.595Z,2.10
2019-03-16T05:16:56.194Z,2.50
2019-03-16T05:27:01.799Z,2.37
2019-03-16T05:37:07.405Z,3.03
2019-03-16T05:47:12.965Z,3.70
2019-03-16T05:57:18.475Z,3.57
2019-03-16T06:07:24.074Z,3.47
2019-03-16T06:17:29.593Z,4.50
2019-03-16T06:27:36.906Z,2.23
2019-03-16T06:37:42.528Z,3.07
2019-03-16T06:47:48.078Z,3.37
2019-03-16T06:57:53.594Z,4.00
2019-03-16T07:07:59.114Z,4.40
2019-03-16T07:18:06.096Z,4.90
2019-03-16T07:28:11.598Z,3.23
2019-03-16T07:38:17.357Z,3.60
2019-03-16T07:48:22.922Z,3.00
2019-03-16T07:58:28.600Z,2.80
2019-03-16T08:08:34.112Z,3.23
2019-03-16T08:18:39.586Z,2.70
2019-03-16T08:28:45.114Z,3.93
2019-03-16T08:38:50.689Z,5.47
2019-03-16T08:48:56.314Z,5.60
2019-03-16T08:59:01.787Z,5.83
2019-03-16T09:09:07.839Z,4.17
2019-03-16T09:19:15.359Z,3.73
2019-03-16T09:29:21.235Z,4.30
2019-03-16T09:39:27.197Z,3.57
2019-03-16T09:49:33.440Z,3.10
2019-03-16T09:59:39.923Z,3.87
2019-03-16T10:09:46.234Z,4.43
2019-03-16T10:19:51.838Z,4.57
2019-03-16T10:29:57.476Z,3.80
2019-03-16T10:40:03.101Z,2.50
2019-03-16T10:50:15.467Z,4.57
2019-03-16T11:00:23.919Z,3.47
2019-03-16T11:10:29.557Z,3.13
2019-03-16T11:20:35.195Z,5.07
2019-03-16T11:30:40.803Z,4.83
2019-03-16T11:40:46.446Z,4.10
2019-03-16T11:50:52.009Z,5.03
2019-03-16T12:00:57.510Z,4.83
2019-03-16T12:11:03.171Z,4.67
2019-03-16T12:21:08.759Z,4.37
2019-03-16T12:31:14.479Z,5.20
2019-03-16T12:41:20.053Z,4.40
2019-03-16T12:51:25.680Z,3.10
2019-03-16T13:01:31.406Z,2.97
2019-03-16T13:11:37.244Z,3.20
2019-03-16T13:21:43.978Z,5.13
2019-03-16T13:31:49.778Z,9.53
2019-03-16T13:41:55.331Z,12.60
2019-03-16T13:52:02.716Z,8.43
2019-03-16T14:02:08.823Z,11.50
2019-03-16T14:12:16.257Z,12.23
2019-03-16T14:22:22.277Z,12.30
2019-03-16T14:32:28.178Z,6.93
2019-03-16T14:42:34.115Z,6.37
2019-03-16T15:24:52.075Z,9.77
2019-03-16T15:34:59.002Z,8.53
2019-03-16T15:45:07.452Z,11.30
2019-03-16T15:55:13.430Z,8.63
2019-03-16T16:05:19.478Z,11.60
2019-03-16T16:15:25.479Z,7.50
2019-03-16T16:25:31.546Z,6.23
2019-03-16T16:35:37.332Z,6.80
2019-03-16T16:45:43.239Z,7.80
2019-03-16T16:55:49.355Z,8.30
2019-03-16T17:05:55.492Z,9.67
2019-03-16T17:16:01.388Z,8.83
2019-03-16T17:26:07.283Z,8.37
2019-03-16T17:36:14.936Z,8.40
2019-03-16T17:46:20.874Z,11.10
2019-03-16T17:56:26.899Z,16.33
2019-03-16T18:06:32.948Z,16.17
2019-03-16T18:16:38.875Z,20.33
2019-03-16T18:26:44.849Z,27.20
2019-03-16T18:36:50.858Z,24.83
2019-03-16T18:46:56.984Z,26.90
2019-03-16T18:57:04.715Z,23.23
2019-03-16T19:07:10.796Z,22.70
2019-03-16T19:17:16.826Z,21.53
2019-03-16T19:27:23.237Z,21.07
2019-03-16T19:37:29.992Z,19.90
2019-03-16T19:47:35.917Z,19.33
2019-03-16T19:57:41.932Z,18.77
2019-03-16T20:07:47.879Z,15.33
2019-03-16T20:17:53.836Z,15.30
2019-03-16T20:27:59.853Z,15.87
2019-03-16T20:38:05.932Z,16.57
2019-03-16T20:48:11.675Z,17.03
2019-03-16T20:58:17.729Z,17.77
2019-03-16T21:08:23.571Z,17.53
2019-03-16T21:18:29.487Z,18.47
2019-03-16T21:28:35.389Z,20.17
2019-03-16T21:38:41.234Z,23.00
2019-03-16T21:48:47.114Z,23.47
2019-03-16T21:58:52.845Z,23.87
2019-03-16T22:08:58.525Z,25.20
2019-03-16T22:19:04.331Z,24.00
2019-03-16T22:29:09.839Z,23.93
2019-03-16T22:39:15.429Z,22.57
2019-03-16T22:49:20.932Z,23.03
2019-03-16T22:59:28.430Z,23.37
2019-03-16T23:09:33.994Z,22.47
2019-03-16T23:19:39.594Z,19.00
2019-03-16T23:29:45.157Z,18.60
2019-03-16T23:39:51.117Z,18.10
2019-03-16T23:49:56.715Z,16.43
